createdAt,value
2019-04-29T00:05:09.045Z,10.63
2019-04-29T00:10:21.258Z,11.80
2019-04-29T00:15:38.877Z,11.00
2019-04-29T00:20:47.886Z,11.23
2019-04-29T00:25:55.178Z,11.00
2019-04-29T00:31:03.479Z,11.53
2019-04-29T00:36:11.097Z,11.03
2019-04-29T00:41:28.723Z,11.63
2019-04-29T00:46:36.225Z,10.90
2019-04-29T00:51:44.265Z,10.93
2019-04-29T00:57:10.644Z,11.07
2019-04-29T01:02:18.008Z,10.30
2019-04-29T01:07:25.809Z,10.87
2019-04-29T01:12:37.940Z,10.90
2019-04-29T01:17:46.297Z,10.90
2019-04-29T01:22:53.703Z,10.83
2019-04-29T01:28:04.100Z,10.77
2019-04-29T01:33:20.147Z,11.50
2019-04-29T01:38:28.710Z,11.30
2019-04-29T01:43:54.754Z,11.40
2019-04-29T01:49:04.320Z,11.13
2019-04-29T01:54:12.743Z,11.80
2019-04-29T01:59:31.202Z,12.13
2019-04-29T02:04:40.008Z,11.87
2019-04-29T02:09:50.526Z,12.80
2019-04-29T02:15:00.658Z,12.80
2019-04-29T02:20:09.830Z,12.57
2019-04-29T02:25:24.318Z,14.27
2019-04-29T02:30:45.404Z,15.07
2019-04-29T02:35:53.009Z,15.03
2019-04-29T02:41:03.441Z,15.70
2019-04-29T02:46:10.837Z,16.10
2019-04-29T02:51:38.969Z,16.47
2019-04-29T02:56:57.165Z,16.23
2019-04-29T03:02:23.935Z,16.63
2019-04-29T03:07:32.418Z,16.67
2019-04-29T03:12:40.737Z,18.00
2019-04-29T03:17:49.291Z,19.73
2019-04-29T03:23:08.968Z,17.60
2019-04-29T03:28:17.866Z,18.50
2019-04-29T03:33:26.292Z,18.70
2019-04-29T03:38:33.968Z,18.63
2019-04-29T03:43:42.100Z,19.93
2019-04-29T03:48:52.299Z,19.30
2019-04-29T03:53:59.730Z,18.50
2019-04-29T03:59:07.168Z,20.37
2019-04-29T04:04:16.125Z,18.40
2019-04-29T04:09:27.058Z,18.30
2019-04-29T04:14:35.451Z,18.27
2019-04-29T04:19:44.073Z,17.00
2019-04-29T04:24:53.581Z,17.80
2019-04-29T04:30:01.001Z,16.80
2019-04-29T04:35:11.054Z,16.47
2019-04-29T04:40:24.115Z,17.40
2019-04-29T04:45:33.889Z,16.40
2019-04-29T04:50:42.287Z,17.33
2019-04-29T04:55:51.937Z,15.40
2019-04-29T05:01:01.547Z,16.43
2019-04-29T05:06:11.280Z,16.47
2019-04-29T05:11:19.236Z,15.30
2019-04-29T05:16:31.227Z,15.87
2019-04-29T05:21:40.164Z,15.60
2019-04-29T05:26:47.562Z,15.07
2019-04-29T05:32:08.811Z,14.10
2019-04-29T05:37:27.486Z,13.70
2019-04-29T05:42:35.495Z,13.60
2019-04-29T05:47:46.675Z,14.67
2019-04-29T05:52:56.096Z,13.67
2019-04-29T05:58:13.580Z,13.33
2019-04-29T06:03:22.323Z,15.67
2019-04-29T06:08:29.999Z,13.73
2019-04-29T06:13:38.143Z,13.97
2019-04-29T06:18:46.266Z,13.37
2019-04-29T06:23:54.674Z,12.67
2019-04-29T06:29:06.253Z,12.77
2019-04-29T06:34:14.453Z,12.83
2019-04-29T06:39:23.554Z,13.43
2019-04-29T06:44:31.090Z,13.53
2019-04-29T06:49:39.321Z,13.10
2019-04-29T06:54:46.673Z,13.10
2019-04-29T06:59:54.898Z,12.93
2019-04-29T07:05:02.295Z,13.03
2019-04-29T07:10:10.950Z,13.37
2019-04-29T07:15:18.399Z,13.20
2019-04-29T07:20:28.102Z,13.53
2019-04-29T07:25:36.465Z,13.40
2019-04-29T07:31:00.285Z,13.70
2019-04-29T07:35:53.936Z,13.73
2019-04-29T07:41:03.006Z,12.83
2019-04-29T07:46:25.446Z,13.53
2019-04-29T07:51:34.831Z,15.30
2019-04-29T07:56:43.664Z,15.83
2019-04-29T08:01:51.264Z,16.73
2019-04-29T08:07:00.879Z,17.20
2019-04-29T08:12:11.749Z,15.63
2019-04-29T08:17:21.576Z,16.07
2019-04-29T08:22:31.715Z,17.00
2019-04-29T08:27:43.630Z,19.73
2019-04-29T08:32:49.904Z,20.50
2019-04-29T08:37:58.192Z,19.73
2019-04-29T08:43:22.848Z,19.03
2019-04-29T08:48:29.664Z,18.27
2019-04-29T08:53:36.551Z,19.43
2019-04-29T08:58:44.070Z,18.70
2019-04-29T09:03:53.754Z,19.43
2019-04-29T09:09:04.950Z,20.87
2019-04-29T09:14:13.220Z,20.53
2019-04-29T09:19:20.994Z,21.00
2019-04-29T09:24:28.700Z,20.20
2019-04-29T09:29:38.283Z,19.00
2019-04-29T09:34:45.407Z,19.93
2019-04-29T09:39:52.252Z,18.87
2019-04-29T09:45:01.940Z,15.70
2019-04-29T09:50:10.773Z,17.13
2019-04-29T09:55:20.114Z,15.63
2019-04-29T10:00:46.700Z,16.57
2019-04-29T10:05:55.160Z,15.50
2019-04-29T10:11:03.684Z,15.53
2019-04-29T10:16:14.342Z,16.07
2019-04-29T10:21:23.374Z,17.10
2019-04-29T10:26:31.046Z,16.53
2019-04-29T10:31:40.332Z,16.87
2019-04-29T10:36:52.316Z,14.90
2019-04-29T10:42:01.594Z,15.53
2019-04-29T10:47:17.233Z,16.13
2019-04-29T10:52:26.629Z,13.87
2019-04-29T10:57:35.172Z,14.40
2019-04-29T11:02:44.709Z,13.83
2019-04-29T11:07:58.195Z,12.00
2019-04-29T11:13:05.795Z,12.43
2019-04-29T11:18:18.062Z,12.47
2019-04-29T11:23:25.993Z,12.97
2019-04-29T11:28:34.954Z,12.30
2019-04-29T11:33:51.273Z,12.80
2019-04-29T11:38:59.485Z,12.60
2019-04-29T11:44:08.137Z,11.67
2019-04-29T11:49:17.948Z,10.77
2019-04-29T11:54:38.543Z,11.70
2019-04-29T11:59:51.664Z,11.67
2019-04-29T12:05:13.011Z,12.83
2019-04-29T12:10:48.378Z,11.90
2019-04-29T12:15:56.488Z,13.13
2019-04-29T12:21:09.585Z,13.80
2019-04-29T12:26:17.100Z,12.77
2019-04-29T12:31:28.688Z,14.07
2019-04-29T12:36:54.808Z,12.97
2019-04-29T12:41:54.492Z,13.27
2019-04-29T12:47:27.149Z,13.43
2019-04-29T12:52:53.721Z,12.90
2019-04-29T12:58:07.803Z,12.20
2019-04-29T13:03:18.410Z,12.63
2019-04-29T13:08:27.970Z,10.00
2019-04-29T13:13:37.646Z,12.80
2019-04-29T13:19:10.788Z,10.73
2019-04-29T13:24:18.201Z,11.67
2019-04-29T13:29:27.250Z,11.30
2019-04-29T13:34:33.388Z,11.40
2019-04-29T13:39:43.058Z,10.83
2019-04-29T13:45:13.964Z,10.47
2019-04-29T13:50:39.325Z,9.47
2019-04-29T13:55:49.692Z,8.20
2019-04-29T14:01:00.023Z,7.67
2019-04-29T14:06:09.281Z,8.10
2019-04-29T14:11:21.866Z,7.03
2019-04-29T14:16:28.062Z,6.93
2019-04-29T14:21:45.000Z,7.20
2019-04-29T14:26:52.838Z,7.07
2019-04-29T14:32:02.629Z,6.50
2019-04-29T14:37:20.002Z,7.23
2019-04-29T14:42:36.337Z,7.00
2019-04-29T14:47:51.501Z,7.40
2019-04-29T14:52:59.623Z,6.30
2019-04-29T14:58:17.394Z,6.60
2019-04-29T15:03:46.658Z,6.93
2019-04-29T15:08:55.699Z,10.30
2019-04-29T15:14:36.539Z,8.60
2019-04-29T15:20:04.887Z,7.67
2019-04-29T15:25:12.465Z,9.10
2019-04-29T15:30:20.671Z,9.00
2019-04-29T15:35:28.513Z,9.73
2019-04-29T15:40:43.161Z,11.73
2019-04-29T15:45:49.177Z,13.30
2019-04-29T15:51:09.128Z,15.90
2019-04-29T15:56:28.829Z,19.80
2019-04-29T16:01:30.334Z,20.00
2019-04-29T16:06:57.517Z,20.50
2019-04-29T16:12:15.587Z,22.50
2019-04-29T16:17:24.499Z,24.93
2019-04-29T16:22:38.510Z,25.83
2019-04-29T16:27:59.956Z,25.73
2019-04-29T16:33:14.163Z,26.97
2019-04-29T16:38:17.399Z,25.33
2019-04-29T16:43:28.027Z,26.67
2019-04-29T16:48:35.951Z,27.60
2019-04-29T16:53:47.589Z,28.33
2019-04-29T16:58:57.038Z,28.30
2019-04-29T17:04:05.665Z,28.87
2019-04-29T17:09:23.343Z,30.97
2019-04-29T17:14:31.499Z,31.77
2019-04-29T17:19:39.936Z,30.57
2019-04-29T17:24:47.169Z,30.10
2019-04-29T17:30:03.473Z,30.53
2019-04-29T17:35:08.424Z,29.13
2019-04-29T17:40:17.065Z,29.67
2019-04-29T17:45:31.768Z,29.53
2019-04-29T17:50:46.480Z,28.90
2019-04-29T17:55:55.483Z,29.93
2019-04-29T18:01:23.794Z,31.07
2019-04-29T18:06:33.383Z,29.60
2019-04-29T18:11:50.528Z,29.53
2019-04-29T18:16:51.592Z,31.50
2019-04-29T18:22:18.456Z,30.10
2019-04-29T18:27:35.027Z,30.93
2019-04-29T18:32:46.606Z,30.87
2019-04-29T18:37:51.817Z,31.57
2019-04-29T18:43:04.895Z,32.53
2019-04-29T18:48:16.995Z,30.73
2019-04-29T18:53:21.004Z,32.23
2019-04-29T18:58:29.524Z,32.87
2019-04-29T19:03:42.173Z,33.43
2019-04-29T19:08:50.299Z,31.33
2019-04-29T19:14:09.430Z,33.13
2019-04-29T19:19:18.923Z,33.43
2019-04-29T19:24:27.543Z,35.23
2019-04-29T19:29:38.931Z,34.70
2019-04-29T19:34:45.956Z,36.40
2019-04-29T19:39:57.089Z,36.30
2019-04-29T19:45:06.405Z,36.53
2019-04-29T19:50:19.483Z,37.47
2019-04-29T19:55:27.678Z,37.57
2019-04-29T20:00:55.723Z,39.10
2019-04-29T20:06:08.841Z,35.83
2019-04-29T20:11:18.099Z,36.27
2019-04-29T20:16:40.571Z,35.93
2019-04-29T20:21:39.543Z,34.10
2019-04-29T20:26:47.434Z,32.93
2019-04-29T20:31:56.602Z,32.00
2019-04-29T20:37:05.875Z,30.37
2019-04-29T20:42:15.890Z,32.00
2019-04-29T20:47:37.227Z,33.67
2019-04-29T20:52:36.647Z,35.17
2019-04-29T20:57:47.950Z,39.10
2019-04-29T21:02:57.894Z,38.23
2019-04-29T21:08:14.578Z,34.77
2019-04-29T21:13:34.257Z,38.93
2019-04-29T21:18:47.471Z,38.10
2019-04-29T21:23:50.541Z,40.83
2019-04-29T21:29:00.325Z,39.60
2019-04-29T21:34:08.810Z,38.03
2019-04-29T21:39:27.340Z,36.30
2019-04-29T21:44:35.288Z,36.37
2019-04-29T21:49:49.898Z,34.10
2019-04-29T21:54:57.570Z,35.07
2019-04-29T22:00:10.558Z,33.23
2019-04-29T22:05:19.474Z,34.87
2019-04-29T22:10:29.297Z,32.40
2019-04-29T22:15:42.411Z,34.10
2019-04-29T22:20:48.433Z,33.00
2019-04-29T22:25:56.755Z,31.03
2019-04-29T22:31:07.777Z,30.97
2019-04-29T22:36:18.202Z,28.67
2019-04-29T22:41:32.730Z,27.83
2019-04-29T23:08:51.923Z,27.90
2019-04-29T23:14:01.813Z,25.57
2019-04-29T23:19:13.606Z,22.60
2019-04-29T23:24:20.015Z,22.57
2019-04-29T23:29:29.252Z,18.97
2019-04-29T23:34:38.382Z,17.33
2019-04-29T23:39:45.714Z,15.17
2019-04-29T23:44:55.058Z,13.27
2019-04-29T23:50:02.172Z,12.97
2019-04-29T23:55:13.190Z,13.90
